createdAt,value
2023-02-02T00:02:29.569Z,6.30
2023-02-02T00:05:22.713Z,7.80
2023-02-02T00:08:15.969Z,8.30
2023-02-02T00:11:09.059Z,8.30
2023-02-02T00:14:02.187Z,7.70
2023-02-02T00:16:55.620Z,8.00
2023-02-02T00:19:49.068Z,7.50
2023-02-02T00:22:41.809Z,7.00
2023-02-02T00:25:34.907Z,6.80
2023-02-02T00:28:27.648Z,7.40
2023-02-02T00:31:13.908Z,6.90
2023-02-02T00:34:06.791Z,9.00
2023-02-02T00:37:00.148Z,7.80
2023-02-02T00:39:53.149Z,7.30
2023-02-02T00:42:50.540Z,6.40
2023-02-02T00:45:43.397Z,6.50
2023-02-02T00:48:36.442Z,6.50
2023-02-02T00:51:29.246Z,6.40
2023-02-02T00:54:22.903Z,6.00
2023-02-02T00:57:17.396Z,5.60
2023-02-02T01:00:15.281Z,5.50
2023-02-02T01:03:08.248Z,5.40
2023-02-02T01:06:01.032Z,4.90
2023-02-02T01:08:53.855Z,5.40
2023-02-02T01:11:46.702Z,5.80
2023-02-02T01:14:39.448Z,5.80
2023-02-02T01:17:32.385Z,5.40
2023-02-02T01:20:25.944Z,4.90
2023-02-02T01:23:18.896Z,5.40
2023-02-02T01:26:13.964Z,5.60
2023-02-02T01:29:07.473Z,5.00
2023-02-02T01:32:00.872Z,4.60
2023-02-02T01:34:53.070Z,4.00
2023-02-02T01:37:45.989Z,4.60
2023-02-02T01:40:38.894Z,4.70
2023-02-02T01:43:52.809Z,4.20
2023-02-02T01:46:46.786Z,4.50
2023-02-02T01:49:41.530Z,4.40
2023-02-02T01:52:37.133Z,4.10
2023-02-02T01:55:32.900Z,4.50
2023-02-02T01:58:27.390Z,4.40
2023-02-02T02:01:20.364Z,4.50
2023-02-02T02:04:13.672Z,4.00
2023-02-02T02:07:02.357Z,4.20
2023-02-02T02:09:55.448Z,4.40
2023-02-02T02:12:49.021Z,3.80
2023-02-02T02:16:20.146Z,3.70
2023-02-02T02:19:27.308Z,3.90
2023-02-02T02:22:39.817Z,3.80
2023-02-02T02:26:16.416Z,3.80
2023-02-02T02:29:35.909Z,4.20
2023-02-02T02:32:37.932Z,4.50
2023-02-02T02:35:38.431Z,5.00
2023-02-02T02:38:40.186Z,4.10
2023-02-02T02:41:39.423Z,3.60
2023-02-02T02:44:33.750Z,4.90
2023-02-02T02:47:27.242Z,5.10
2023-02-02T02:50:20.607Z,5.70
2023-02-02T02:53:17.247Z,5.20
2023-02-02T02:56:18.815Z,5.80
2023-02-02T02:59:19.797Z,5.20
2023-02-02T03:02:41.271Z,6.20
2023-02-02T03:05:43.192Z,6.30
2023-02-02T03:08:41.689Z,5.20
2023-02-02T03:11:35.686Z,6.40
2023-02-02T03:14:28.887Z,5.50
2023-02-02T03:17:21.968Z,5.50
2023-02-02T03:20:06.552Z,5.90
2023-02-02T03:22:59.444Z,5.00
2023-02-02T03:25:52.411Z,5.20
2023-02-02T03:28:38.542Z,3.80
2023-02-02T03:31:32.317Z,3.40
2023-02-02T03:34:25.435Z,3.00
2023-02-02T03:37:19.856Z,2.70
2023-02-02T03:40:14.918Z,2.70
2023-02-02T03:43:08.239Z,2.70
2023-02-02T03:46:04.533Z,2.80
2023-02-02T03:48:50.137Z,2.90
2023-02-02T03:51:44.524Z,2.50
2023-02-02T03:54:38.459Z,2.60
2023-02-02T03:57:31.476Z,2.80
2023-02-02T04:00:26.620Z,2.60
2023-02-02T04:03:19.721Z,2.90
2023-02-02T04:06:14.544Z,3.20
2023-02-02T04:09:07.496Z,3.10
2023-02-02T04:12:03.451Z,2.90
2023-02-02T04:14:56.369Z,3.10
2023-02-02T04:17:51.006Z,3.30
2023-02-02T04:20:43.985Z,3.50
2023-02-02T04:23:37.276Z,3.20
2023-02-02T04:26:30.445Z,3.00
2023-02-02T04:29:23.696Z,3.30
2023-02-02T04:32:17.661Z,3.50
2023-02-02T04:35:12.084Z,3.00
2023-02-02T04:38:05.210Z,3.30
2023-02-02T04:40:59.329Z,3.30
2023-02-02T04:43:52.440Z,3.30
2023-02-02T04:46:47.343Z,3.90
2023-02-02T04:49:40.145Z,3.90
2023-02-02T04:52:35.426Z,3.60
2023-02-02T04:55:18.441Z,3.30
2023-02-02T04:58:11.658Z,2.50
2023-02-02T05:01:11.847Z,2.60
2023-02-02T05:03:54.231Z,2.90
2023-02-02T05:06:47.449Z,2.80
2023-02-02T05:09:42.088Z,3.10
2023-02-02T05:12:35.061Z,2.90
2023-02-02T05:15:28.076Z,2.70
2023-02-02T05:18:22.203Z,3.30
2023-02-02T05:21:15.180Z,3.10
2023-02-02T05:24:08.549Z,3.20
2023-02-02T05:27:01.719Z,2.80
2023-02-02T05:29:54.520Z,2.90
2023-02-02T05:32:47.476Z,3.60
2023-02-02T05:35:39.425Z,2.90
2023-02-02T05:38:32.680Z,3.00
2023-02-02T05:41:25.961Z,3.00
2023-02-02T05:44:19.643Z,3.20
2023-02-02T05:47:14.210Z,3.60
2023-02-02T05:50:08.225Z,3.40
2023-02-02T05:53:02.952Z,4.20
2023-02-02T05:55:55.984Z,4.20
2023-02-02T05:58:50.622Z,5.20
2023-02-02T06:01:43.479Z,5.20
2023-02-02T06:04:38.975Z,5.30
2023-02-02T06:07:32.195Z,5.60
2023-02-02T06:10:26.891Z,5.90
2023-02-02T06:13:19.671Z,4.80
2023-02-02T06:16:13.947Z,5.70
2023-02-02T06:19:06.732Z,5.80
2023-02-02T06:21:59.675Z,6.50
2023-02-02T06:24:53.633Z,6.80
2023-02-02T06:27:46.589Z,7.50
2023-02-02T06:30:27.224Z,7.50
2023-02-02T06:33:20.337Z,7.10
2023-02-02T06:36:13.514Z,7.70
2023-02-02T06:39:00.609Z,6.50
2023-02-02T06:41:53.724Z,7.60
2023-02-02T06:44:46.600Z,6.60
2023-02-02T06:47:39.343Z,5.60
2023-02-02T06:50:32.478Z,6.20
2023-02-02T06:53:26.848Z,5.50
2023-02-02T06:56:19.995Z,5.50
2023-02-02T06:59:13.148Z,6.10
2023-02-02T07:02:06.022Z,5.70
2023-02-02T07:04:57.954Z,5.20
2023-02-02T07:07:53.772Z,5.30
2023-02-02T07:11:12.718Z,5.10
2023-02-02T07:13:51.443Z,5.00
2023-02-02T07:16:44.169Z,6.00
2023-02-02T07:19:31.428Z,6.10
2023-02-02T07:22:24.252Z,6.50
2023-02-02T07:25:17.130Z,7.80
2023-02-02T07:28:00.290Z,7.60
2023-02-02T07:30:43.137Z,8.80
2023-02-02T07:33:40.212Z,8.20
2023-02-02T07:36:27.535Z,8.10
2023-02-02T07:39:10.394Z,6.90
2023-02-02T07:41:53.532Z,5.80
2023-02-02T07:44:49.266Z,6.70
2023-02-02T07:47:43.280Z,7.30
2023-02-02T07:50:36.718Z,6.70
2023-02-02T07:53:30.998Z,6.60
2023-02-02T07:56:15.493Z,7.00
2023-02-02T07:59:07.045Z,9.20
2023-02-02T08:01:58.536Z,8.70
2023-02-02T08:04:43.978Z,7.10
2023-02-02T08:07:38.714Z,6.70
2023-02-02T08:10:31.593Z,8.30
2023-02-02T08:13:25.341Z,5.90
2023-02-02T08:16:17.678Z,4.90
2023-02-02T08:19:11.051Z,5.70
2023-02-02T08:22:04.772Z,6.30
2023-02-02T08:24:48.198Z,5.20
2023-02-02T08:27:35.232Z,5.90
2023-02-02T08:30:29.784Z,5.90
2023-02-02T08:33:22.628Z,6.20
2023-02-02T08:36:06.068Z,7.60
2023-02-02T08:39:02.979Z,6.50
2023-02-02T08:41:59.782Z,5.40
2023-02-02T08:46:12.727Z,5.70
2023-02-02T08:48:10.710Z,4.90
2023-02-02T08:50:59.217Z,6.10
2023-02-02T08:53:51.747Z,13.40
2023-02-02T08:56:44.645Z,4.50
2023-02-02T08:59:38.009Z,4.00
2023-02-02T09:02:23.291Z,5.30
2023-02-02T09:05:16.179Z,4.50
2023-02-02T09:08:09.082Z,4.00
2023-02-02T09:11:06.264Z,5.20
2023-02-02T09:14:02.294Z,3.80
2023-02-02T09:16:56.535Z,5.70
2023-02-02T09:19:39.429Z,4.40
2023-02-02T09:22:24.843Z,4.50
2023-02-02T09:25:18.028Z,5.10
2023-02-02T09:28:11.013Z,4.20
2023-02-02T09:30:56.602Z,3.50
2023-02-02T09:33:42.611Z,4.00
2023-02-02T09:36:27.030Z,6.00
2023-02-02T09:39:29.527Z,9.20
2023-02-02T09:42:42.941Z,8.00
2023-02-02T09:45:47.544Z,6.60
2023-02-02T09:48:52.282Z,4.60
2023-02-02T09:51:50.814Z,4.10
2023-02-02T09:54:49.682Z,4.60
2023-02-02T09:57:47.525Z,3.40
2023-02-02T10:00:45.688Z,4.40
2023-02-02T10:03:45.465Z,2.60
2023-02-02T10:06:38.689Z,3.30
2023-02-02T10:09:41.266Z,3.10
2023-02-02T10:12:47.952Z,3.20
2023-02-02T10:15:45.223Z,3.60
2023-02-02T10:18:46.157Z,5.60
2023-02-02T10:21:46.848Z,2.60
2023-02-02T10:24:40.173Z,2.10
2023-02-02T10:27:39.592Z,5.30
2023-02-02T10:30:45.866Z,2.70
2023-02-02T10:33:41.018Z,3.30
2023-02-02T10:36:36.019Z,3.10
2023-02-02T10:39:41.807Z,3.40
2023-02-02T10:43:06.937Z,3.70
2023-02-02T10:45:55.995Z,2.60
2023-02-02T10:48:37.394Z,2.90
2023-02-02T10:51:31.289Z,2.80
2023-02-02T10:54:54.962Z,2.50
2023-02-02T10:57:59.420Z,3.50
2023-02-02T11:00:54.508Z,3.50
2023-02-02T11:03:47.892Z,3.00
2023-02-02T11:06:50.914Z,2.70
2023-02-02T11:09:45.631Z,4.80
2023-02-02T11:12:41.305Z,5.70
2023-02-02T11:15:33.625Z,4.10
2023-02-02T11:18:33.396Z,3.40
2023-02-02T11:21:28.692Z,3.10
2023-02-02T11:24:25.949Z,2.60
2023-02-02T11:27:26.137Z,2.60
2023-02-02T11:30:29.100Z,2.70
2023-02-02T11:33:28.914Z,3.90
2023-02-02T11:36:23.655Z,8.20
2023-02-02T11:39:22.885Z,5.10
2023-02-02T11:42:21.438Z,5.00
2023-02-02T11:45:21.387Z,5.10
2023-02-02T11:48:20.436Z,5.70
2023-02-02T11:51:25.864Z,7.40
2023-02-02T11:54:25.149Z,4.70
2023-02-02T11:57:22.753Z,6.20
2023-02-02T12:00:28.816Z,5.50
2023-02-02T12:03:33.217Z,5.00
2023-02-02T12:06:23.699Z,5.10
2023-02-02T12:09:22.526Z,4.20
2023-02-02T12:12:43.945Z,5.80
2023-02-02T12:15:47.786Z,4.50
2023-02-02T12:18:55.674Z,4.40
2023-02-02T12:21:50.619Z,4.30
2023-02-02T12:24:52.523Z,3.90
2023-02-02T12:27:57.472Z,4.60
2023-02-02T12:31:00.002Z,4.90
2023-02-02T12:34:02.319Z,4.00
2023-02-02T12:37:04.463Z,4.00
2023-02-02T12:40:17.701Z,3.90
2023-02-02T12:43:22.954Z,4.20
2023-02-02T12:46:40.707Z,4.40
2023-02-02T12:49:54.624Z,4.50
2023-02-02T12:53:08.819Z,4.80
2023-02-02T12:56:16.670Z,4.40
2023-02-02T12:59:19.836Z,4.30
2023-02-02T13:02:07.490Z,5.30
2023-02-02T13:05:14.532Z,4.20
2023-02-02T13:08:10.973Z,5.30
2023-02-02T13:11:31.064Z,3.90
2023-02-02T13:14:29.032Z,4.90
2023-02-02T13:17:27.282Z,5.90
2023-02-02T13:20:33.187Z,4.70
2023-02-02T13:23:30.306Z,4.80
2023-02-02T13:26:14.197Z,5.70
2023-02-02T13:29:03.662Z,4.00
2023-02-02T13:32:01.878Z,4.20
2023-02-02T13:34:58.555Z,4.40
2023-02-02T13:38:00.736Z,4.60
2023-02-02T13:40:56.305Z,5.10
2023-02-02T13:43:58.398Z,4.50
2023-02-02T13:46:58.086Z,5.80
2023-02-02T13:49:54.857Z,4.70
2023-02-02T13:53:10.671Z,4.90
2023-02-02T13:56:25.625Z,5.50
2023-02-02T13:59:37.100Z,5.80
2023-02-02T14:02:39.828Z,4.30
2023-02-02T14:05:36.103Z,7.40
2023-02-02T14:08:30.879Z,5.00
2023-02-02T14:11:28.729Z,4.80
2023-02-02T14:14:35.330Z,4.80
2023-02-02T14:17:56.375Z,5.60
2023-02-02T14:20:52.693Z,4.10
2023-02-02T14:23:56.451Z,4.90
2023-02-02T14:26:54.436Z,3.80
2023-02-02T14:30:17.751Z,5.10
2023-02-02T14:33:47.584Z,5.20
2023-02-02T14:36:52.986Z,5.30
2023-02-02T14:39:59.105Z,5.50
2023-02-02T14:43:25.629Z,4.00
2023-02-02T14:46:37.826Z,5.50
2023-02-02T14:49:39.207Z,5.40
2023-02-02T14:52:34.735Z,6.10
2023-02-02T14:55:30.377Z,4.90
2023-02-02T14:58:26.303Z,5.40
2023-02-02T15:01:24.859Z,5.60
2023-02-02T15:04:28.289Z,5.80
2023-02-02T15:07:40.266Z,5.50
2023-02-02T15:11:22.616Z,7.50
2023-02-02T15:14:10.748Z,7.90
2023-02-02T15:16:59.437Z,9.50
2023-02-02T15:19:57.492Z,7.00
2023-02-02T15:25:49.259Z,8.40
2023-02-02T15:28:49.678Z,9.90
2023-02-02T15:31:47.721Z,8.80
2023-02-02T15:34:48.789Z,6.60
2023-02-02T15:37:45.843Z,8.10
2023-02-02T15:40:40.943Z,7.80
2023-02-02T15:43:30.126Z,8.70
2023-02-02T15:46:26.542Z,6.50
2023-02-02T15:49:36.039Z,8.80
2023-02-02T15:52:33.178Z,7.20
2023-02-02T15:55:27.190Z,7.70
2023-02-02T15:58:29.144Z,7.90
2023-02-02T16:01:25.552Z,7.70
2023-02-02T16:04:22.458Z,9.00
2023-02-02T16:07:22.270Z,7.60
2023-02-02T16:10:23.859Z,7.50
2023-02-02T16:13:26.795Z,7.50
2023-02-02T16:16:29.113Z,7.50
2023-02-02T16:19:25.220Z,6.70
2023-02-02T16:22:21.319Z,7.40
2023-02-02T16:25:23.421Z,7.40
2023-02-02T16:28:18.736Z,7.90
2023-02-02T16:31:07.822Z,7.50
2023-02-02T16:34:02.793Z,8.40
2023-02-02T16:37:17.872Z,6.20
2023-02-02T16:40:29.810Z,6.10
2023-02-02T16:43:29.534Z,7.00
2023-02-02T16:46:45.720Z,8.00
2023-02-02T16:49:30.231Z,7.80
2023-02-02T16:52:24.543Z,7.60
2023-02-02T16:55:14.698Z,8.80
2023-02-02T16:58:07.562Z,9.70
2023-02-02T17:01:14.165Z,9.40
2023-02-02T17:04:17.517Z,8.50
2023-02-02T17:07:11.772Z,7.40
2023-02-02T17:10:14.044Z,7.60
2023-02-02T17:13:01.643Z,9.20
2023-02-02T17:15:54.814Z,7.30
2023-02-02T17:18:48.134Z,8.10
2023-02-02T17:21:41.193Z,8.90
2023-02-02T17:24:27.265Z,7.20
2023-02-02T17:27:03.627Z,6.10
2023-02-02T17:30:01.155Z,7.70
2023-02-02T17:32:54.297Z,8.00
2023-02-02T17:35:55.730Z,8.30
2023-02-02T17:38:40.806Z,8.40
2023-02-02T17:41:16.984Z,8.90
2023-02-02T17:43:49.771Z,7.20
2023-02-02T17:46:35.216Z,8.30
2023-02-02T17:49:28.070Z,9.10
2023-02-02T17:52:11.091Z,9.00
2023-02-02T17:54:52.007Z,7.50
2023-02-02T17:57:27.780Z,6.70
2023-02-02T18:00:23.427Z,7.50
2023-02-02T18:03:19.447Z,6.70
2023-02-02T18:06:00.669Z,6.90
2023-02-02T18:08:45.689Z,6.10
2023-02-02T18:11:38.880Z,6.10
2023-02-02T18:14:14.600Z,6.30
2023-02-02T18:16:47.409Z,7.20
2023-02-02T18:19:33.161Z,8.20
2023-02-02T18:22:18.685Z,11.00
2023-02-02T18:25:12.209Z,12.40
2023-02-02T18:27:57.832Z,9.20
2023-02-02T18:30:30.617Z,10.20
2023-02-02T18:33:03.451Z,9.20
2023-02-02T18:35:42.084Z,7.80
2023-02-02T18:38:19.720Z,8.80
2023-02-02T18:40:59.079Z,8.40
2023-02-02T18:43:32.485Z,9.50
2023-02-02T18:46:10.358Z,9.00
2023-02-02T18:48:48.387Z,7.80
2023-02-02T18:51:22.159Z,7.50
2023-02-02T18:54:00.405Z,7.70
2023-02-02T18:56:33.495Z,7.70
2023-02-02T18:59:06.946Z,7.90
2023-02-02T19:02:02.611Z,7.90
2023-02-02T19:04:37.113Z,9.60
2023-02-02T19:07:30.706Z,9.00
2023-02-02T19:10:14.202Z,6.40
2023-02-02T19:12:53.155Z,6.80
2023-02-02T19:15:47.244Z,7.00
2023-02-02T19:18:40.018Z,10.00
2023-02-02T19:21:20.238Z,9.60
2023-02-02T19:24:15.925Z,8.60
2023-02-02T19:26:54.096Z,8.40
2023-02-02T19:29:41.309Z,8.40
2023-02-02T19:32:27.020Z,8.80
2023-02-02T19:35:24.551Z,8.60
2023-02-02T19:38:07.779Z,7.70
2023-02-02T19:40:43.597Z,7.30
2023-02-02T19:43:37.182Z,6.30
2023-02-02T19:46:34.289Z,8.20
2023-02-02T19:49:16.224Z,8.40
2023-02-02T19:52:03.879Z,8.80
2023-02-02T19:54:57.040Z,7.00
2023-02-02T19:57:50.171Z,8.80
2023-02-02T20:00:44.998Z,6.40
2023-02-02T20:03:46.616Z,7.50
2023-02-02T20:06:27.026Z,8.10
2023-02-02T20:09:15.419Z,7.70
2023-02-02T20:12:23.564Z,8.30
2023-02-02T20:14:58.686Z,7.50
2023-02-02T20:17:34.566Z,6.70
2023-02-02T20:20:30.010Z,7.50
2023-02-02T20:25:41.674Z,7.20
2023-02-02T20:28:32.704Z,6.30
2023-02-02T20:31:18.347Z,6.10
2023-02-02T20:33:53.375Z,6.00
2023-02-02T20:36:39.288Z,6.20
2023-02-02T20:39:36.812Z,6.70
2023-02-02T20:42:20.921Z,6.40
2023-02-02T20:44:58.308Z,5.40
2023-02-02T20:47:52.482Z,6.30
2023-02-02T20:50:31.335Z,6.30
2023-02-02T20:53:10.099Z,7.10
2023-02-02T20:55:47.320Z,7.70
2023-02-02T20:58:33.065Z,8.10
2023-02-02T21:01:26.287Z,6.00
2023-02-02T21:04:21.339Z,7.50
2023-02-02T21:07:14.237Z,7.70
2023-02-02T21:10:07.977Z,8.10
2023-02-02T21:13:00.769Z,8.10
2023-02-02T21:15:53.514Z,8.30
2023-02-02T21:18:47.362Z,7.00
2023-02-02T21:21:40.472Z,7.50
2023-02-02T21:24:33.439Z,7.50
2023-02-02T21:27:26.246Z,7.50
2023-02-02T21:30:03.755Z,8.00
2023-02-02T21:32:58.174Z,6.70
2023-02-02T21:35:51.038Z,7.30
2023-02-02T21:38:45.238Z,6.70
2023-02-02T21:41:38.507Z,8.00
2023-02-02T21:44:27.615Z,7.40
2023-02-02T21:47:29.916Z,8.30
2023-02-02T21:50:21.376Z,10.90
2023-02-02T21:53:22.202Z,6.70
2023-02-02T21:59:31.108Z,7.20
2023-02-02T22:02:45.317Z,6.40
2023-02-02T22:05:39.062Z,7.10
2023-02-02T22:08:36.707Z,7.30
2023-02-02T22:11:31.269Z,7.10
2023-02-02T22:14:21.773Z,6.90
2023-02-02T22:17:23.133Z,6.90
2023-02-02T22:20:30.833Z,8.50
2023-02-02T22:23:04.722Z,7.20
2023-02-02T22:25:59.291Z,7.50
2023-02-02T22:28:52.178Z,7.90
2023-02-02T22:31:44.985Z,6.80
2023-02-02T22:34:30.924Z,7.10
2023-02-02T22:37:23.819Z,8.10
2023-02-02T22:40:22.692Z,7.50
2023-02-02T22:43:16.371Z,7.90
2023-02-02T22:46:09.315Z,9.10
2023-02-02T22:49:00.976Z,7.90
2023-02-02T22:51:46.132Z,8.40
2023-02-02T22:54:38.900Z,7.30
2023-02-02T22:57:32.247Z,7.60
2023-02-02T23:00:28.067Z,6.40
2023-02-02T23:03:21.143Z,7.10
2023-02-02T23:06:14.126Z,7.10
2023-02-02T23:09:06.993Z,7.90
2023-02-02T23:11:59.750Z,7.00
2023-02-02T23:14:52.579Z,7.30
2023-02-02T23:17:45.475Z,7.20
2023-02-02T23:20:38.442Z,7.10
2023-02-02T23:23:31.270Z,6.80
2023-02-02T23:26:24.475Z,6.40
2023-02-02T23:29:17.384Z,6.40
2023-02-02T23:32:10.334Z,5.70
2023-02-02T23:35:03.546Z,6.00
2023-02-02T23:37:56.423Z,5.90
2023-02-02T23:40:41.547Z,6.50
2023-02-02T23:43:26.931Z,5.90
2023-02-02T23:46:23.145Z,5.90
2023-02-02T23:49:16.320Z,5.90
2023-02-02T23:52:09.961Z,5.70
2023-02-02T23:55:02.846Z,6.40
2023-02-02T23:57:57.841Z,5.70
